Time;durP1;ratioP1;P1;durP2;ratioP2;P2;SDS_P1;SDS_P2;PMS_P1;PMS_P2;Temp;Humidity;BMP_temperature;BMP_pressure;BME280_temperature;BME280_humidity;BME280_pressure;Samples;Min_cycle;Max_cycle;Signal;HPM_P1;HPM_P2
2021/03/14 00:01:25;;;;;;;1.88;0.85;;;9.50;99.90;;;;;;5045256;28;20033;-63
2021/03/14 00:03:50;;;;;;;1.05;0.70;;;9.50;99.90;;;;;;5046323;28;20048;-64
2021/03/14 00:06:16;;;;;;;1.20;0.60;;;9.50;99.90;;;;;;5046154;28;20487;-65
2021/03/14 00:08:43;;;;;;;1.00;0.63;;;9.50;99.90;;;;;;5046006;28;20021;-65
2021/03/14 00:11:09;;;;;;;2.33;0.82;;;9.50;99.90;;;;;;5045656;28;20037;-65
2021/03/14 00:13:39;;;;;;;2.03;0.70;;;9.50;99.90;;;;;;5046327;28;20238;-65
2021/03/14 00:16:09;;;;;;;3.20;1.00;;;9.50;99.90;;;;;;5046296;28;20202;-64
2021/03/14 00:18:43;;;;;;;1.10;0.63;;;9.50;99.90;;;;;;5044705;28;20060;-64
2021/03/14 00:21:12;;;;;;;3.80;0.63;;;9.50;99.90;;;;;;5045469;28;20024;-65
2021/03/14 00:23:39;;;;;;;2.40;0.70;;;9.50;99.90;;;;;;5045538;28;20037;-66
2021/03/14 00:26:07;;;;;;;2.80;1.42;;;9.30;99.90;;;;;;5045864;28;20025;-62
2021/03/14 00:28:33;;;;;;;0.70;0.40;;;9.00;99.90;;;;;;5045418;28;20072;-66
2021/03/14 00:31:00;;;;;;;0.85;0.40;;;7.50;99.90;;;;;;5045768;28;20021;-66
2021/03/14 00:33:26;;;;;;;0.80;0.50;;;6.60;99.90;;;;;;5045473;28;20108;-63
2021/03/14 00:35:52;;;;;;;1.30;0.82;;;6.40;99.90;;;;;;5045425;28;20720;-63
2021/03/14 00:38:17;;;;;;;2.60;1.17;;;6.50;99.90;;;;;;5045156;28;20439;-64
2021/03/14 00:40:45;;;;;;;2.80;1.13;;;6.40;99.90;;;;;;5046123;28;20538;-64
2021/03/14 00:43:12;;;;;;;3.20;0.95;;;6.40;99.90;;;;;;5045219;28;20079;-64
2021/03/14 00:45:39;;;;;;;3.03;1.52;;;6.60;99.90;;;;;;5045500;28;20029;-65
2021/03/14 00:48:07;;;;;;;3.63;1.20;;;6.60;99.90;;;;;;5045513;28;20064;-68
2021/03/14 00:50:38;;;;;;;2.92;1.73;;;6.70;99.90;;;;;;5045926;28;20104;-66
2021/03/14 00:53:05;;;;;;;4.18;1.60;;;6.70;99.90;;;;;;5045261;28;20303;-70
2021/03/14 00:55:32;;;;;;;2.10;1.20;;;6.80;99.90;;;;;;5045486;28;20104;-66
2021/03/14 00:57:59;;;;;;;3.53;1.45;;;6.80;99.90;;;;;;5045652;28;20048;-65
2021/03/14 01:00:26;;;;;;;1.67;0.90;;;6.80;99.90;;;;;;5045878;28;20028;-66
2021/03/14 01:02:53;;;;;;;2.50;1.55;;;6.80;99.90;;;;;;5045755;28;20021;-66
2021/03/14 01:05:19;;;;;;;1.70;1.00;;;6.80;99.90;;;;;;5045117;28;20032;-63
2021/03/14 01:07:47;;;;;;;1.08;0.40;;;6.80;99.90;;;;;;5046350;28;20078;-67
2021/03/14 01:10:14;;;;;;;0.60;0.40;;;6.90;99.90;;;;;;5045232;28;20044;-67
2021/03/14 01:12:41;;;;;;;2.30;1.10;;;6.90;99.90;;;;;;5045271;28;20021;-68
2021/03/14 01:15:10;;;;;;;0.55;0.40;;;6.90;99.90;;;;;;5045335;28;20065;-67
2021/03/14 01:17:36;;;;;;;0.98;0.47;;;6.90;99.90;;;;;;5044957;28;20540;-65
2021/03/14 01:20:09;;;;;;;0.60;0.38;;;6.90;99.90;;;;;;5044697;28;20059;-67
2021/03/14 01:22:35;;;;;;;0.65;0.35;;;6.90;99.90;;;;;;5045526;28;20069;-65
2021/03/14 01:25:01;;;;;;;0.47;0.40;;;6.90;99.90;;;;;;5045333;28;20029;-67
2021/03/14 01:27:27;;;;;;;0.75;0.30;;;7.00;99.90;;;;;;5044906;28;20430;-65
2021/03/14 01:29:52;;;;;;;0.63;0.28;;;7.10;99.90;;;;;;5044982;28;20458;-66
2021/03/14 01:32:19;;;;;;;0.35;0.30;;;7.20;99.90;;;;;;5044826;28;20468;-67
2021/03/14 01:34:48;;;;;;;0.75;0.30;;;7.10;99.90;;;;;;5045216;28;20032;-65
2021/03/14 01:37:18;;;;;;;0.40;0.30;;;7.20;99.90;;;;;;5045482;28;20391;-66
2021/03/14 01:39:45;;;;;;;1.35;0.70;;;7.20;99.90;;;;;;5045431;28;20064;-65
2021/03/14 01:42:11;;;;;;;5.00;2.75;;;7.20;99.90;;;;;;5044355;28;20045;-64
2021/03/14 01:44:41;;;;;;;1.88;0.90;;;7.00;99.90;;;;;;5045234;28;20024;-66
2021/03/14 01:47:10;;;;;;;3.15;0.60;;;7.10;99.90;;;;;;5044758;28;20025;-66
2021/03/14 01:49:38;;;;;;;1.33;0.45;;;7.00;99.90;;;;;;5044470;28;20033;-67
2021/03/14 01:52:06;;;;;;;0.40;0.40;;;7.10;99.90;;;;;;5044974;28;20029;-66
2021/03/14 01:54:32;;;;;;;0.32;0.30;;;7.10;99.90;;;;;;5044508;28;20021;-65
2021/03/14 01:56:57;;;;;;;0.30;0.30;;;7.10;99.90;;;;;;5044549;28;20029;-66
2021/03/14 01:59:24;;;;;;;0.93;0.65;;;7.20;99.90;;;;;;5044179;28;20044;-65
2021/03/14 02:01:54;;;;;;;0.20;0.20;;;7.10;99.90;;;;;;5043213;28;20036;-65
2021/03/14 02:04:19;;;;;;;0.80;0.30;;;7.00;99.90;;;;;;5043117;28;20029;-66
2021/03/14 02:06:45;;;;;;;0.40;0.40;;;7.10;99.90;;;;;;5044017;28;20222;-66
2021/03/14 02:09:13;;;;;;;1.38;0.63;;;7.20;99.90;;;;;;5043204;28;20404;-66
2021/03/14 02:11:44;;;;;;;0.50;0.30;;;7.20;99.90;;;;;;5044324;28;20123;-65
2021/03/14 02:14:10;;;;;;;0.22;0.22;;;7.20;99.90;;;;;;5044237;28;20056;-66
2021/03/14 02:16:41;;;;;;;0.35;0.30;;;7.30;99.90;;;;;;5044421;28;20050;-66
2021/03/14 02:19:15;;;;;;;0.35;0.30;;;7.40;99.90;;;;;;5043881;28;20432;-66
2021/03/14 02:21:41;;;;;;;0.68;0.30;;;7.30;99.90;;;;;;5044328;28;20061;-65
2021/03/14 02:24:16;;;;;;;0.45;0.40;;;7.40;99.90;;;;;;5043935;28;20068;-65
2021/03/14 02:26:46;;;;;;;0.30;0.30;;;7.40;99.90;;;;;;5044902;28;20021;-65
2021/03/14 02:29:18;;;;;;;0.30;0.30;;;7.40;99.90;;;;;;5043789;28;20108;-66
2021/03/14 02:31:46;;;;;;;1.75;1.20;;;7.50;99.90;;;;;;5044744;28;20032;-65
2021/03/14 02:34:19;;;;;;;1.85;1.23;;;7.50;99.90;;;;;;5043790;28;20550;-65
2021/03/14 02:36:46;;;;;;;1.50;1.10;;;7.50;99.90;;;;;;5044724;28;20025;-65
2021/03/14 02:39:16;;;;;;;4.72;2.40;;;7.50;99.90;;;;;;5044382;28;20468;-66
2021/03/14 02:41:44;;;;;;;6.35;3.30;;;7.40;99.90;;;;;;5044325;28;20580;-65
2021/03/14 02:44:13;;;;;;;8.65;4.38;;;7.40;99.90;;;;;;5043855;28;20446;-65
2021/03/14 02:46:41;;;;;;;5.85;3.28;;;7.40;99.90;;;;;;5044066;28;20029;-65
2021/03/14 02:49:08;;;;;;;4.05;2.10;;;7.40;99.90;;;;;;5043600;28;20882;-65
2021/03/14 02:51:38;;;;;;;2.30;1.52;;;7.40;99.90;;;;;;5044166;28;20445;-65
2021/03/14 02:54:04;;;;;;;1.67;1.02;;;7.50;99.90;;;;;;5044298;28;20442;-66
2021/03/14 02:56:31;;;;;;;1.50;0.70;;;7.50;99.90;;;;;;5043800;28;20020;-64
2021/03/14 02:58:59;;;;;;;0.90;0.63;;;7.30;99.90;;;;;;5043771;28;20425;-65
2021/03/14 03:01:26;;;;;;;1.42;0.70;;;7.10;99.90;;;;;;5043597;28;20422;-65
2021/03/14 03:03:57;;;;;;;0.57;0.50;;;7.00;99.90;;;;;;5043865;28;20056;-65
2021/03/14 03:06:25;;;;;;;1.17;0.50;;;7.00;99.90;;;;;;5043413;28;20061;-65
2021/03/14 03:08:52;;;;;;;0.38;0.38;;;7.10;99.90;;;;;;5043488;28;20434;-65
2021/03/14 03:11:18;;;;;;;1.00;0.30;;;7.00;99.90;;;;;;5043432;28;20520;-65
2021/03/14 03:13:46;;;;;;;1.30;0.40;;;6.90;99.90;;;;;;5044621;28;20056;-64
2021/03/14 03:16:17;;;;;;;0.50;0.30;;;6.80;99.90;;;;;;5045854;28;20021;-65
2021/03/14 03:18:45;;;;;;;0.30;0.30;;;6.80;99.90;;;;;;5048101;28;20033;-65
2021/03/14 03:21:12;;;;;;;0.20;0.20;;;6.90;99.90;;;;;;5047146;28;20033;-65
2021/03/14 03:23:39;;;;;;;0.20;0.20;;;7.10;99.90;;;;;;5045636;28;20243;-65
2021/03/14 03:26:06;;;;;;;0.20;0.20;;;7.10;99.90;;;;;;5047475;28;20127;-65
2021/03/14 03:28:34;;;;;;;0.68;0.50;;;7.20;99.90;;;;;;5045337;28;20036;-65
2021/03/14 03:31:01;;;;;;;0.60;0.60;;;7.10;99.90;;;;;;5048157;28;20021;-65
2021/03/14 03:33:27;;;;;;;0.60;0.60;;;7.20;99.90;;;;;;5047372;28;20036;-65
2021/03/14 03:35:53;;;;;;;0.40;0.40;;;7.20;99.90;;;;;;5047516;28;20021;-65
2021/03/14 03:38:20;;;;;;;0.30;0.30;;;7.10;99.90;;;;;;5046434;28;20033;-65
2021/03/14 03:40:47;;;;;;;0.30;0.30;;;7.10;99.90;;;;;;5046913;28;20115;-65
2021/03/14 03:43:27;;;;;;;0.63;0.40;;;7.00;99.90;;;;;;5046693;28;20036;-65
2021/03/14 03:45:58;;;;;;;0.20;0.20;;;7.20;99.90;;;;;;5047304;28;20021;-65
2021/03/14 03:48:48;;;;;;;0.45;0.40;;;7.10;99.90;;;;;;5046670;28;20074;-65
2021/03/14 03:51:20;;;;;;;0.25;0.25;;;7.10;99.90;;;;;;5048780;28;20064;-65
2021/03/14 03:53:48;;;;;;;0.45;0.20;;;7.10;99.90;;;;;;5045632;28;20024;-65
2021/03/14 03:56:14;;;;;;;0.22;0.22;;;6.90;99.90;;;;;;5046830;28;20104;-65
2021/03/14 03:58:43;;;;;;;0.30;0.30;;;6.90;99.90;;;;;;5046597;28;20266;-66
2021/03/14 04:01:13;;;;;;;0.30;0.30;;;7.00;99.90;;;;;;5046254;28;20025;-65
2021/03/14 04:03:44;;;;;;;0.20;0.20;;;7.10;99.90;;;;;;5046600;28;20064;-65
2021/03/14 04:06:13;;;;;;;0.38;0.30;;;6.90;99.90;;;;;;5046589;28;20055;-65
2021/03/14 04:08:41;;;;;;;0.32;0.32;;;6.90;99.90;;;;;;5046154;28;20070;-65
2021/03/14 04:11:14;;;;;;;0.32;0.30;;;7.00;99.90;;;;;;5046769;28;20020;-65
2021/03/14 04:13:42;;;;;;;0.22;0.22;;;6.90;99.90;;;;;;5047005;28;20052;-65
2021/03/14 04:16:11;;;;;;;0.30;0.30;;;6.90;99.90;;;;;;5046418;28;20013;-65
2021/03/14 04:18:38;;;;;;;1.65;0.40;;;6.80;99.90;;;;;;5046364;28;20035;-65
2021/03/14 04:21:07;;;;;;;0.22;0.22;;;6.60;99.90;;;;;;5046372;28;20037;-65
2021/03/14 04:23:35;;;;;;;0.28;0.28;;;6.70;99.90;;;;;;5046514;28;20028;-65
2021/03/14 04:26:01;;;;;;;0.93;0.22;;;6.60;99.90;;;;;;5046725;28;20096;-65
2021/03/14 04:28:33;;;;;;;1.20;0.40;;;6.60;99.90;;;;;;5045910;28;20033;-65
2021/03/14 04:31:01;;;;;;;0.30;0.30;;;6.70;99.90;;;;;;5046799;28;20032;-65
2021/03/14 04:33:29;;;;;;;0.57;0.22;;;6.60;99.90;;;;;;5046898;28;20033;-65
2021/03/14 04:35:59;;;;;;;0.85;0.40;;;6.50;99.90;;;;;;5047053;28;20025;-65
2021/03/14 04:38:27;;;;;;;0.88;0.38;;;6.10;99.90;;;;;;5045985;28;20483;-65
2021/03/14 04:40:55;;;;;;;0.40;0.40;;;6.30;99.90;;;;;;5045588;28;20040;-66
2021/03/14 04:43:23;;;;;;;0.32;0.30;;;6.40;99.90;;;;;;5045665;28;20048;-65
2021/03/14 04:45:51;;;;;;;0.52;0.35;;;6.60;99.90;;;;;;5046469;28;20020;-65
2021/03/14 04:48:18;;;;;;;1.55;0.65;;;6.70;99.90;;;;;;5045771;28;20116;-65
2021/03/14 04:50:45;;;;;;;0.30;0.30;;;6.60;99.90;;;;;;5046009;28;20055;-65
2021/03/14 04:53:12;;;;;;;1.13;0.40;;;6.60;99.90;;;;;;5045714;28;20021;-65
2021/03/14 04:55:40;;;;;;;0.30;0.30;;;6.60;99.90;;;;;;5046047;28;20028;-65
2021/03/14 04:58:12;;;;;;;0.20;0.20;;;6.50;99.90;;;;;;5045540;28;20071;-65
2021/03/14 05:00:39;;;;;;;0.30;0.30;;;6.50;99.90;;;;;;5045785;28;20039;-65
2021/03/14 05:03:09;;;;;;;0.90;0.32;;;6.60;99.90;;;;;;5046039;28;20032;-65
2021/03/14 05:05:42;;;;;;;0.20;0.20;;;6.50;99.90;;;;;;5045754;28;20024;-65
2021/03/14 05:08:10;;;;;;;0.30;0.30;;;6.50;99.90;;;;;;5044801;28;20021;-65
2021/03/14 05:10:38;;;;;;;0.20;0.20;;;6.40;99.90;;;;;;5045688;28;20052;-65
2021/03/14 05:13:05;;;;;;;0.88;0.40;;;6.40;99.90;;;;;;5045811;28;20033;-65
2021/03/14 05:15:32;;;;;;;0.43;0.43;;;6.50;99.90;;;;;;5045304;28;20028;-65
2021/03/14 05:18:00;;;;;;;0.38;0.30;;;6.60;99.90;;;;;;5045826;28;20024;-65
2021/03/14 05:20:28;;;;;;;0.20;0.20;;;6.70;99.90;;;;;;5044087;28;20483;-65
2021/03/14 05:22:55;;;;;;;0.50;0.50;;;6.70;99.90;;;;;;5045861;28;20479;-65
2021/03/14 05:25:22;;;;;;;3.30;2.13;;;6.70;99.90;;;;;;5044892;28;20031;-66
2021/03/14 05:27:53;;;;;;;4.75;3.35;;;6.70;99.90;;;;;;5044735;28;20025;-66
2021/03/14 05:30:28;;;;;;;1.92;1.58;;;6.60;99.90;;;;;;5044644;28;20545;-68
2021/03/14 05:32:56;;;;;;;1.45;1.08;;;5.90;99.90;;;;;;5045081;28;20522;-68
2021/03/14 05:35:27;;;;;;;1.65;0.90;;;6.20;99.90;;;;;;5044693;28;20574;-68
2021/03/14 05:37:55;;;;;;;0.82;0.73;;;6.10;99.90;;;;;;5044080;28;20480;-68
2021/03/14 05:40:25;;;;;;;0.90;0.50;;;6.20;99.90;;;;;;5044587;28;20558;-68
2021/03/14 05:42:52;;;;;;;0.40;0.40;;;6.40;99.90;;;;;;5044809;28;20537;-68
2021/03/14 05:45:19;;;;;;;0.47;0.32;;;6.50;99.90;;;;;;5044615;28;20489;-68
2021/03/14 05:47:46;;;;;;;0.30;0.30;;;6.40;99.90;;;;;;5043330;28;20411;-66
2021/03/14 05:50:17;;;;;;;0.30;0.30;;;6.30;99.90;;;;;;5045501;28;20471;-66
2021/03/14 05:52:44;;;;;;;0.90;0.30;;;6.30;99.90;;;;;;5044975;28;20029;-66
2021/03/14 05:55:16;;;;;;;0.60;0.30;;;6.30;99.90;;;;;;5045040;28;20503;-67
2021/03/14 05:57:44;;;;;;;0.20;0.20;;;6.40;99.90;;;;;;5044122;28;20087;-67
2021/03/14 06:00:14;;;;;;;0.60;0.60;;;6.40;99.90;;;;;;5044885;28;20438;-68
2021/03/14 06:02:42;;;;;;;0.73;0.60;;;6.30;99.90;;;;;;5045079;28;20033;-67
2021/03/14 06:05:08;;;;;;;0.50;0.50;;;6.30;99.90;;;;;;5044711;28;20443;-67
2021/03/14 06:07:35;;;;;;;0.40;0.40;;;6.40;99.90;;;;;;5044825;28;20025;-67
2021/03/14 06:10:01;;;;;;;0.60;0.60;;;6.40;99.90;;;;;;5043907;28;20058;-67
2021/03/14 06:12:29;;;;;;;0.93;0.50;;;6.40;99.90;;;;;;5044241;28;20017;-67
2021/03/14 06:14:58;;;;;;;0.50;0.40;;;6.50;99.90;;;;;;5044414;28;20468;-66
2021/03/14 06:17:29;;;;;;;1.27;0.50;;;6.40;99.90;;;;;;5044608;28;20033;-66
2021/03/14 06:19:58;;;;;;;0.85;0.30;;;6.30;99.90;;;;;;5044323;28;20029;-66
2021/03/14 06:22:27;;;;;;;1.00;0.50;;;6.30;99.90;;;;;;5043810;28;20582;-66
2021/03/14 06:24:54;;;;;;;0.30;0.30;;;6.20;99.90;;;;;;5044217;28;20067;-67
2021/03/14 06:27:36;;;;;;;1.00;0.60;;;6.20;99.90;;;;;;5045962;28;20033;-66
2021/03/14 06:30:09;;;;;;;1.05;0.52;;;6.30;99.90;;;;;;5043252;28;20127;-67
2021/03/14 06:32:38;;;;;;;1.05;0.55;;;6.40;99.90;;;;;;5042598;28;20037;-66
2021/03/14 06:35:13;;;;;;;0.50;0.40;;;6.40;99.90;;;;;;5045841;28;20025;-66
2021/03/14 06:37:39;;;;;;;1.00;0.50;;;6.50;99.90;;;;;;5031569;28;20028;-66
2021/03/14 06:40:23;;;;;;;1.67;0.57;;;6.60;99.90;;;;;;5025492;28;20025;-66
2021/03/14 06:42:49;;;;;;;;;;;6.50;99.90;;;;;;5026343;28;20033;-66
2021/03/14 06:45:16;;;;;;;0.98;0.60;;;6.40;99.90;;;;;;5025679;28;19911;-66
2021/03/14 06:47:43;;;;;;;1.45;0.90;;;6.40;99.90;;;;;;5026451;28;20079;-66
2021/03/14 06:50:15;;;;;;;0.88;0.40;;;6.40;99.90;;;;;;5042175;28;20078;-66
2021/03/14 06:53:01;;;;;;;1.20;0.50;;;6.50;99.90;;;;;;5050978;28;20025;-66
2021/03/14 06:55:29;;;;;;;0.98;0.50;;;6.50;99.90;;;;;;5049589;28;20112;-66
2021/03/14 06:57:57;;;;;;;0.52;0.50;;;6.50;99.90;;;;;;5047683;28;20538;-66
2021/03/14 07:00:23;;;;;;;1.40;0.60;;;6.60;99.90;;;;;;5047657;28;20403;-66
2021/03/14 07:02:49;;;;;;;2.55;0.60;;;6.70;99.90;;;;;;5048256;28;20031;-67
2021/03/14 07:05:23;;;;;;;1.75;0.50;;;6.70;99.90;;;;;;5047912;28;20399;-67
2021/03/14 07:07:50;;;;;;;0.93;0.50;;;6.60;99.90;;;;;;5048274;28;20321;-66
2021/03/14 07:10:19;;;;;;;1.77;0.60;;;6.60;99.90;;;;;;5047506;28;20028;-66
2021/03/14 07:12:47;;;;;;;2.45;0.77;;;6.60;99.90;;;;;;5047561;28;20027;-66
2021/03/14 07:15:19;;;;;;;3.35;1.35;;;6.50;99.90;;;;;;5049841;28;20025;-65
2021/03/14 07:17:50;;;;;;;2.42;1.20;;;6.50;99.90;;;;;;5047983;28;20029;-66
2021/03/14 07:20:19;;;;;;;1.70;0.90;;;6.60;99.90;;;;;;5046360;28;20032;-66
2021/03/14 07:23:06;;;;;;;1.73;0.85;;;6.60;99.90;;;;;;5049051;28;20120;-66
2021/03/14 07:25:36;;;;;;;3.33;1.25;;;6.70;99.90;;;;;;5046218;28;20033;-66
2021/03/14 07:28:03;;;;;;;1.33;0.70;;;6.80;99.90;;;;;;5046060;28;20391;-67
2021/03/14 07:30:29;;;;;;;1.40;0.60;;;6.80;99.90;;;;;;5047670;28;20033;-66
2021/03/14 07:32:56;;;;;;;1.35;0.90;;;6.70;99.90;;;;;;5046417;28;20013;-67
2021/03/14 07:35:24;;;;;;;1.70;0.75;;;6.70;99.90;;;;;;5046167;28;20159;-67
2021/03/14 07:37:53;;;;;;;2.85;0.98;;;6.70;99.90;;;;;;5044651;28;20439;-68
2021/03/14 07:40:22;;;;;;;1.95;0.82;;;6.80;99.90;;;;;;5046334;28;20503;-67
2021/03/14 07:42:52;;;;;;;3.30;1.63;;;6.80;99.90;;;;;;5048724;28;20079;-67
2021/03/14 07:45:21;;;;;;;2.92;1.65;;;6.90;99.90;;;;;;5047251;28;20025;-67
2021/03/14 07:47:47;;;;;;;3.33;1.50;;;6.90;99.90;;;;;;5046963;28;20029;-67
2021/03/14 07:50:22;;;;;;;2.80;1.35;;;7.00;99.90;;;;;;5048405;28;20029;-66
2021/03/14 07:52:52;;;;;;;4.72;1.38;;;7.10;99.90;;;;;;5048362;28;20028;-67
2021/03/14 07:55:20;;;;;;;2.55;1.00;;;7.20;99.90;;;;;;5047276;28;20035;-67
2021/03/14 07:57:49;;;;;;;0.98;0.75;;;7.10;99.90;;;;;;5047554;28;20025;-67
2021/03/14 08:00:36;;;;;;;2.17;0.98;;;7.10;99.90;;;;;;5047839;28;20033;-66
2021/03/14 08:03:10;;;;;;;1.75;0.75;;;7.30;99.90;;;;;;5047069;28;20054;-67
2021/03/14 08:05:48;;;;;;;1.27;0.70;;;7.20;99.90;;;;;;5048312;28;20057;-67
2021/03/14 08:08:26;;;;;;;1.70;0.70;;;7.30;99.90;;;;;;5047686;28;20025;-67
2021/03/14 08:10:54;;;;;;;0.90;0.75;;;7.20;99.90;;;;;;5047782;28;20098;-67
2021/03/14 08:13:32;;;;;;;1.67;0.85;;;7.40;99.90;;;;;;5047859;28;20056;-67
2021/03/14 08:16:05;;;;;;;3.67;1.23;;;7.40;99.90;;;;;;5058968;28;20028;-66
2021/03/14 08:18:37;;;;;;;1.83;0.70;;;7.40;99.90;;;;;;5069058;28;20552;-67
2021/03/14 08:21:05;;;;;;;0.70;0.60;;;7.50;99.90;;;;;;5066172;28;20638;-67
2021/03/14 08:23:47;;;;;;;1.73;0.60;;;7.40;99.90;;;;;;5027780;28;20030;-67
2021/03/14 08:26:28;;;;;;;2.67;0.90;;;7.30;99.90;;;;;;5041485;28;20037;-67
2021/03/14 08:28:57;;;;;;;1.88;0.90;;;7.40;99.90;;;;;;5047544;28;20025;-67
2021/03/14 08:31:46;;;;;;;1.55;0.80;;;7.20;99.90;;;;;;5046491;28;20029;-68
2021/03/14 08:34:25;;;;;;;1.23;0.60;;;7.30;99.90;;;;;;5047795;28;20021;-68
2021/03/14 08:36:56;;;;;;;2.03;1.05;;;7.40;99.90;;;;;;5046462;28;20053;-68
2021/03/14 08:39:39;;;;;;;2.90;0.95;;;7.40;99.90;;;;;;5045128;28;20553;-68
2021/03/14 08:42:06;;;;;;;1.85;0.80;;;7.30;99.90;;;;;;5046327;28;20102;-68
2021/03/14 08:44:39;;;;;;;2.15;1.10;;;7.30;99.90;;;;;;5046878;28;20048;-68
2021/03/14 08:47:35;;;;;;;3.15;1.15;;;7.30;99.90;;;;;;5046993;28;20466;-67
2021/03/14 08:50:01;;;;;;;3.55;1.20;;;7.50;99.90;;;;;;5042232;28;20073;-68
2021/03/14 08:52:27;;;;;;;2.20;1.15;;;7.40;99.90;;;;;;5045849;28;20412;-68
2021/03/14 08:54:54;;;;;;;2.20;1.25;;;7.30;99.90;;;;;;5046663;28;20035;-67
2021/03/14 08:57:21;;;;;;;1.85;1.05;;;7.30;99.90;;;;;;5046386;28;20111;-67
2021/03/14 08:59:54;;;;;;;2.28;1.23;;;7.20;99.90;;;;;;5046524;28;20009;-67
2021/03/14 09:02:25;;;;;;;1.67;0.88;;;7.30;99.90;;;;;;5046615;28;20020;-68
2021/03/14 09:04:52;;;;;;;2.72;1.00;;;7.40;99.90;;;;;;5046779;28;20094;-68
2021/03/14 09:07:20;;;;;;;2.58;1.20;;;7.30;99.90;;;;;;5043775;28;20025;-69
2021/03/14 09:09:46;;;;;;;4.13;1.17;;;7.30;99.90;;;;;;5045646;28;20021;-68
2021/03/14 09:12:14;;;;;;;2.95;1.38;;;7.20;99.90;;;;;;5046745;28;20025;-67
2021/03/14 09:14:48;;;;;;;3.00;1.10;;;7.30;99.90;;;;;;5046777;28;20049;-67
2021/03/14 09:17:20;;;;;;;2.63;1.33;;;7.10;99.90;;;;;;5045530;28;20029;-68
2021/03/14 09:19:54;;;;;;;4.47;1.13;;;7.10;99.90;;;;;;5043837;28;20315;-68
2021/03/14 09:22:28;;;;;;;3.28;1.23;;;7.20;99.90;;;;;;5036636;28;20021;-68
2021/03/14 09:25:01;;;;;;;5.20;2.00;;;7.30;99.90;;;;;;5044061;28;20045;-68
2021/03/14 09:27:29;;;;;;;5.63;1.20;;;7.30;99.90;;;;;;5045908;28;20021;-67
2021/03/14 09:29:59;;;;;;;6.00;1.35;;;7.30;99.90;;;;;;5042667;28;20029;-70
2021/03/14 09:32:38;;;;;;;3.97;1.10;;;7.20;99.90;;;;;;5042464;28;20048;-67
2021/03/14 09:35:33;;;;;;;3.40;1.20;;;7.30;99.90;;;;;;5042257;28;20082;-67
2021/03/14 09:38:18;;;;;;;2.42;0.93;;;7.40;99.90;;;;;;5043362;28;20040;-68
2021/03/14 09:40:47;;;;;;;4.95;1.80;;;7.50;99.90;;;;;;5041690;28;20052;-68
2021/03/14 09:43:22;;;;;;;8.43;2.30;;;7.30;99.90;;;;;;5045148;28;20070;-69
2021/03/14 09:45:51;;;;;;;7.10;1.55;;;7.30;99.90;;;;;;5046169;28;20149;-67
2021/03/14 09:48:25;;;;;;;4.43;1.48;;;7.30;99.90;;;;;;5046828;28;20047;-68
2021/03/14 09:50:52;;;;;;;4.53;1.30;;;7.50;99.90;;;;;;5045206;28;20028;-69
2021/03/14 09:53:22;;;;;;;6.03;1.70;;;7.50;99.90;;;;;;5046334;28;20036;-67
2021/03/14 09:55:53;;;;;;;5.72;1.60;;;7.50;99.90;;;;;;5046600;28;20027;-68
2021/03/14 09:58:23;;;;;;;2.75;1.33;;;7.60;99.90;;;;;;5046155;28;20408;-69
2021/03/14 10:00:51;;;;;;;6.40;1.52;;;7.70;99.90;;;;;;5046913;28;20047;-67
2021/03/14 10:03:20;;;;;;;3.15;1.05;;;7.70;99.90;;;;;;5044409;28;20021;-68
2021/03/14 10:05:48;;;;;;;3.80;1.20;;;7.90;99.90;;;;;;5046800;28;20017;-69
2021/03/14 10:08:25;;;;;;;4.53;1.15;;;8.10;99.90;;;;;;5058604;28;20025;-68
2021/03/14 10:10:56;;;;;;;4.40;1.52;;;8.00;99.90;;;;;;5059031;28;20090;-71
2021/03/14 10:13:25;;;;;;;5.38;1.60;;;8.10;99.90;;;;;;5043392;28;20032;-72
2021/03/14 10:15:53;;;;;;;5.72;1.42;;;7.90;99.90;;;;;;5042172;28;20029;-72
2021/03/14 10:18:22;;;;;;;5.40;1.30;;;7.70;99.90;;;;;;5045488;28;20060;-71
2021/03/14 10:20:52;;;;;;;8.57;2.13;;;7.60;99.90;;;;;;5042402;28;20414;-70
2021/03/14 10:23:27;;;;;;;4.50;1.35;;;7.60;99.90;;;;;;5042502;28;20025;-72
2021/03/14 10:25:53;;;;;;;8.23;2.38;;;7.70;99.90;;;;;;5042711;28;20036;-71
2021/03/14 10:28:22;;;;;;;4.32;2.05;;;7.60;99.90;;;;;;5042950;28;20029;-72
2021/03/14 10:30:51;;;;;;;3.53;1.40;;;7.50;99.90;;;;;;5044493;28;20509;-71
2021/03/14 10:33:31;;;;;;;5.15;1.38;;;7.70;99.90;;;;;;5044862;28;20508;-71
2021/03/14 10:36:06;;;;;;;1.85;0.98;;;7.70;99.90;;;;;;5043142;28;20056;-71
2021/03/14 10:38:44;;;;;;;6.78;1.85;;;7.80;99.90;;;;;;5031884;28;20021;-72
2021/03/14 10:41:15;;;;;;;6.07;1.42;;;7.80;99.90;;;;;;5039147;28;20555;-71
2021/03/14 10:43:53;;;;;;;9.77;2.38;;;7.80;99.90;;;;;;5045071;28;20083;-69
2021/03/14 10:46:49;;;;;;;8.90;3.65;;;8.00;99.90;;;;;;5044538;28;20111;-75
2021/03/14 10:49:18;;;;;;;7.72;2.75;;;7.90;99.90;;;;;;5045005;28;20025;-71
2021/03/14 10:51:51;;;;;;;5.43;2.30;;;8.10;99.90;;;;;;5045893;28;20553;-72
2021/03/14 10:54:18;;;;;;;7.53;2.35;;;8.20;99.90;;;;;;5042987;28;20025;-72
2021/03/14 10:56:48;;;;;;;7.43;2.40;;;8.40;99.90;;;;;;5044178;28;20078;-73
2021/03/14 10:59:44;;;;;;;7.03;2.15;;;8.30;99.90;;;;;;5043811;28;20025;-74
2021/03/14 11:02:14;;;;;;;5.25;1.98;;;8.30;99.90;;;;;;5034917;28;20045;-71
2021/03/14 11:04:44;;;;;;;3.90;1.35;;;8.40;99.90;;;;;;5044178;28;20499;-74
2021/03/14 11:07:32;;;;;;;6.78;2.33;;;8.30;99.90;;;;;;5044383;28;20499;-72
2021/03/14 11:10:11;;;;;;;6.75;2.00;;;8.20;99.90;;;;;;5040416;28;20037;-73
2021/03/14 11:12:40;;;;;;;5.65;1.67;;;8.20;99.90;;;;;;5044961;28;20025;-74
2021/03/14 11:15:06;;;;;;;5.70;2.08;;;8.30;99.90;;;;;;5042772;28;20060;-70
2021/03/14 11:17:40;;;;;;;4.85;1.67;;;8.30;99.90;;;;;;5044582;28;20036;-72
2021/03/14 11:20:09;;;;;;;4.95;1.67;;;8.40;99.90;;;;;;5048636;28;20529;-72
2021/03/14 11:22:36;;;;;;;3.90;1.35;;;8.50;99.90;;;;;;5041789;28;20087;-72
2021/03/14 11:25:01;;;;;;;5.40;1.70;;;8.40;99.90;;;;;;5044175;28;20025;-71
2021/03/14 11:27:29;;;;;;;3.72;1.10;;;8.50;99.90;;;;;;5042439;28;20181;-71
2021/03/14 11:29:56;;;;;;;3.25;1.00;;;8.50;99.90;;;;;;5042530;28;20029;-71
2021/03/14 11:32:22;;;;;;;1.42;0.73;;;8.60;99.90;;;;;;5043126;28;20033;-72
2021/03/14 11:34:48;;;;;;;3.88;1.50;;;8.70;99.90;;;;;;5043417;28;20052;-72
2021/03/14 11:37:15;;;;;;;7.78;2.25;;;8.70;99.90;;;;;;5045090;28;20118;-72
2021/03/14 11:39:44;;;;;;;10.93;2.75;;;8.50;99.90;;;;;;5046925;28;20392;-72
2021/03/14 11:42:11;;;;;;;6.18;2.15;;;8.20;99.90;;;;;;5047530;28;20457;-71
2021/03/14 11:44:39;;;;;;;3.28;1.75;;;8.40;99.90;;;;;;5047875;28;20387;-71
2021/03/14 11:47:06;;;;;;;5.05;1.58;;;8.60;99.90;;;;;;5045993;28;20029;-71
2021/03/14 11:49:33;;;;;;;4.55;1.70;;;8.70;99.90;;;;;;5046632;28;20490;-71
2021/03/14 11:52:00;;;;;;;3.20;1.27;;;8.80;99.90;;;;;;5052287;28;20533;-70
2021/03/14 11:54:25;;;;;;;3.08;1.20;;;8.90;99.90;;;;;;5046779;28;20407;-72
2021/03/14 11:56:52;;;;;;;1.40;1.00;;;9.00;99.90;;;;;;5046928;28;20028;-71
2021/03/14 11:59:20;;;;;;;2.95;1.05;;;9.10;99.90;;;;;;5046808;28;20444;-72
2021/03/14 12:01:46;;;;;;;4.38;1.33;;;9.00;99.90;;;;;;5046878;28;20033;-73
2021/03/14 12:04:12;;;;;;;7.13;2.40;;;9.00;99.90;;;;;;5047209;28;20075;-70
2021/03/14 12:06:38;;;;;;;4.85;2.33;;;8.90;99.90;;;;;;5046707;28;20412;-74
2021/03/14 12:09:05;;;;;;;5.65;1.60;;;9.10;99.90;;;;;;5045835;28;20025;-72
2021/03/14 12:11:31;;;;;;;5.43;2.20;;;9.00;99.90;;;;;;5047176;28;20310;-72
2021/03/14 12:13:58;;;;;;;5.30;1.35;;;9.20;99.90;;;;;;5047949;28;20017;-74
2021/03/14 12:16:24;;;;;;;3.65;1.27;;;9.30;99.70;;;;;;5046591;28;20453;-71
2021/03/14 12:18:52;;;;;;;4.53;1.33;;;9.30;99.40;;;;;;5047659;28;20178;-71
2021/03/14 12:21:18;;;;;;;5.13;1.70;;;9.10;99.00;;;;;;5048533;28;20104;-72
2021/03/14 12:23:44;;;;;;;4.25;1.17;;;9.10;98.70;;;;;;5047741;28;20119;-72
2021/03/14 12:26:12;;;;;;;1.98;0.80;;;9.20;97.80;;;;;;5046095;28;20079;-71
2021/03/14 12:28:38;;;;;;;2.90;1.00;;;9.20;97.90;;;;;;5048756;28;20033;-72
2021/03/14 12:31:04;;;;;;;2.15;1.10;;;9.20;97.40;;;;;;5047453;28;20040;-72
2021/03/14 12:33:29;;;;;;;3.97;1.10;;;9.10;97.30;;;;;;5047271;28;20411;-74
2021/03/14 12:35:55;;;;;;;2.40;0.90;;;9.00;97.80;;;;;;5044380;28;20025;-75
2021/03/14 12:38:21;;;;;;;5.93;1.30;;;9.20;97.90;;;;;;5058809;28;20024;-76
2021/03/14 12:40:48;;;;;;;6.80;1.25;;;9.00;98.50;;;;;;5067689;28;20016;-75
2021/03/14 12:43:16;;;;;;;7.95;1.30;;;9.00;99.00;;;;;;5069270;28;20093;-75
2021/03/14 12:45:43;;;;;;;5.20;0.88;;;9.00;98.30;;;;;;5068744;28;20183;-76
2021/03/14 12:48:09;;;;;;;4.28;1.17;;;8.90;98.00;;;;;;5052295;28;20037;-74
2021/03/14 12:50:37;;;;;;;4.75;1.00;;;8.90;97.70;;;;;;5047744;28;20041;-76
2021/03/14 12:53:03;;;;;;;4.78;0.93;;;8.90;97.80;;;;;;5047617;28;20108;-75
2021/03/14 12:55:29;;;;;;;2.40;0.90;;;9.10;98.50;;;;;;5046910;28;20029;-75
2021/03/14 12:57:55;;;;;;;3.03;0.95;;;9.20;98.00;;;;;;5047163;28;20511;-74
2021/03/14 13:00:22;;;;;;;4.20;1.10;;;9.10;98.50;;;;;;5046612;28;20733;-76
2021/03/14 13:02:49;;;;;;;4.70;1.27;;;9.10;99.10;;;;;;5047000;28;20033;-76
2021/03/14 13:05:18;;;;;;;3.67;1.40;;;9.10;99.20;;;;;;5047937;28;20037;-76
2021/03/14 13:07:46;;;;;;;2.63;1.15;;;9.00;99.10;;;;;;5047776;28;20780;-75
2021/03/14 13:10:15;;;;;;;4.65;1.20;;;9.00;99.90;;;;;;5046221;28;20428;-75